createdAt,value
2023-04-18T00:00:46.744Z,103068.47
2023-04-18T00:03:16.702Z,103078.22
2023-04-18T00:05:44.213Z,103062.66
2023-04-18T00:08:13.993Z,103068.69
2023-04-18T00:10:58.237Z,103076.53
2023-04-18T00:13:35.331Z,103096.63
2023-04-18T00:16:02.589Z,103077.59
2023-04-18T00:18:30.076Z,103056.75
2023-04-18T00:20:59.501Z,103080.38
2023-04-18T00:23:28.528Z,103049.13
2023-04-18T00:25:58.447Z,103064.03
2023-04-18T00:28:25.494Z,103076.34
2023-04-18T00:30:55.189Z,103072.81
2023-04-18T00:33:28.852Z,103072.91
2023-04-18T00:35:55.709Z,103072.09
2023-04-18T00:38:28.236Z,103076.53
2023-04-18T00:40:55.164Z,103091.41
2023-04-18T00:43:23.966Z,103076.66
2023-04-18T00:48:44.931Z,103059.34
2023-04-18T00:51:12.433Z,103050.63
2023-04-18T00:53:51.449Z,103052.50
2023-04-18T00:56:19.442Z,103059.56
2023-04-18T00:58:46.617Z,103071.66
2023-04-18T01:01:13.668Z,103069.97
2023-04-18T01:03:48.098Z,103080.53
2023-04-18T01:06:16.788Z,103084.81
2023-04-18T01:08:45.353Z,103071.78
2023-04-18T01:11:22.312Z,103084.91
2023-04-18T01:14:22.854Z,103066.63
2023-04-18T01:16:55.726Z,103049.22
2023-04-18T01:19:25.009Z,103083.06
2023-04-18T01:21:59.366Z,103067.59
2023-04-18T01:24:35.325Z,103045.75
2023-04-18T01:27:16.889Z,103058.78
2023-04-18T01:29:48.055Z,103038.72
2023-04-18T01:32:23.048Z,103038.88
2023-04-18T01:34:53.020Z,103050.06
2023-04-18T01:37:22.716Z,103070.06
2023-04-18T01:39:49.436Z,103050.06
2023-04-18T01:42:19.507Z,103017.81
2023-04-18T01:47:52.966Z,103018.59
2023-04-18T01:50:30.245Z,103056.13
2023-04-18T01:53:02.277Z,103056.28
2023-04-18T01:55:38.227Z,103020.50
2023-04-18T01:58:18.708Z,103023.06
2023-04-18T02:00:57.779Z,103055.25
2023-04-18T02:03:31.643Z,103031.88
2023-04-18T02:06:10.538Z,103032.75
2023-04-18T02:08:46.271Z,103028.47
2023-04-18T02:11:13.565Z,103032.91
2023-04-18T02:13:50.567Z,103068.72
2023-04-18T02:16:19.984Z,103026.06
2023-04-18T02:18:57.004Z,103036.44
2023-04-18T02:21:26.730Z,103026.88
2023-04-18T02:23:59.114Z,103025.19
2023-04-18T02:26:26.257Z,103030.56
2023-04-18T02:28:57.594Z,103048.81
2023-04-18T02:31:29.476Z,103049.66
2023-04-18T02:33:56.704Z,103047.09
2023-04-18T02:36:31.226Z,103042.69
2023-04-18T02:39:00.953Z,103050.59
2023-04-18T02:41:39.510Z,103028.91
2023-04-18T02:44:13.813Z,103034.06
2023-04-18T02:47:00.694Z,103033.34
2023-04-18T02:50:19.961Z,103036.84
2023-04-18T02:53:00.196Z,103045.53
2023-04-18T02:58:15.492Z,103060.47
2023-04-18T03:00:44.514Z,103027.44
2023-04-18T03:03:14.237Z,103028.41
2023-04-18T03:05:53.026Z,103044.06
2023-04-18T03:08:25.903Z,103031.97
2023-04-18T03:10:56.253Z,103052.09
2023-04-18T03:13:30.364Z,103067.72
2023-04-18T03:16:02.167Z,103025.03
2023-04-18T03:18:49.743Z,103071.34
2023-04-18T03:21:22.056Z,103033.94
2023-04-18T03:23:48.977Z,103040.03
2023-04-18T03:26:22.959Z,103055.81
2023-04-18T03:28:52.240Z,103060.13
2023-04-18T03:31:23.982Z,103048.00
2023-04-18T03:33:53.584Z,103061.84
2023-04-18T03:36:49.862Z,103039.31
2023-04-18T03:39:22.461Z,103067.06
2023-04-18T03:41:56.859Z,103045.31
2023-04-18T03:44:26.265Z,103055.81
2023-04-18T03:47:00.954Z,103044.47
2023-04-18T03:49:30.791Z,103033.28
2023-04-18T03:51:58.040Z,103041.28
2023-04-18T03:54:25.274Z,103039.56
2023-04-18T03:56:52.325Z,103057.78
2023-04-18T03:59:19.466Z,103065.69
2023-04-18T04:01:46.689Z,103035.19
2023-04-18T04:04:17.920Z,103062.97
2023-04-18T04:06:45.528Z,103068.31
2023-04-18T04:09:23.855Z,103080.63
2023-04-18T04:11:50.881Z,103060.63
2023-04-18T04:14:24.748Z,103078.97
2023-04-18T04:16:57.709Z,103059.81
2023-04-18T04:19:24.631Z,103066.75
2023-04-18T04:21:51.378Z,103068.50
2023-04-18T04:24:28.785Z,103048.56
2023-04-18T04:26:56.549Z,103085.88
2023-04-18T04:29:34.173Z,103050.22
2023-04-18T04:32:01.337Z,103055.41
2023-04-18T04:34:28.230Z,103070.16
2023-04-18T04:39:50.249Z,103090.28
2023-04-18T04:42:17.737Z,103064.13
2023-04-18T04:44:44.810Z,103074.53
2023-04-18T04:47:14.293Z,103063.31
2023-04-18T04:52:27.310Z,103065.94
2023-04-18T04:54:56.841Z,103058.97
2023-04-18T04:57:23.657Z,103058.09
2023-04-18T04:59:59.550Z,103083.38
2023-04-18T05:02:57.922Z,103058.13
2023-04-18T05:30:43.884Z,103110.34
2023-04-18T05:33:18.353Z,103078.06
2023-04-18T05:36:01.886Z,103104.19
2023-04-18T05:38:42.061Z,103105.94
2023-04-18T06:04:42.697Z,103123.09
2023-04-18T06:07:10.195Z,103081.22
2023-04-18T06:09:38.655Z,103089.03
2023-04-18T06:12:08.988Z,103136.09
2023-04-18T06:14:37.912Z,103125.50
2023-04-18T06:17:07.611Z,103134.25
2023-04-18T06:19:34.312Z,103086.28
2023-04-18T06:22:07.044Z,103125.56
2023-04-18T06:24:37.568Z,103112.38
2023-04-18T06:27:06.420Z,103140.13
2023-04-18T06:29:35.043Z,103137.56
2023-04-18T06:32:09.409Z,103119.28
2023-04-18T06:37:22.454Z,103099.94
2023-04-18T06:39:54.376Z,103113.84
2023-04-18T06:42:24.620Z,103099.78
2023-04-18T06:45:01.271Z,103132.91
2023-04-18T06:47:32.838Z,103122.34
2023-04-18T06:49:59.711Z,103110.88
2023-04-18T06:52:26.441Z,103126.53
2023-04-18T06:54:53.835Z,103160.41
2023-04-18T06:57:26.794Z,103125.41
2023-04-18T06:59:55.075Z,103153.06
2023-04-18T07:02:22.252Z,103127.00
2023-04-18T07:04:50.298Z,103111.34
2023-04-18T07:07:19.345Z,103110.44
2023-04-18T07:09:46.231Z,103116.41
2023-04-18T07:12:18.008Z,103140.72
2023-04-18T07:14:46.982Z,103114.41
2023-04-18T07:17:13.922Z,103107.19
2023-04-18T07:19:50.094Z,103134.31
2023-04-18T07:22:16.866Z,103146.56
2023-04-18T07:24:46.679Z,103137.00
2023-04-18T07:27:19.676Z,103141.25
2023-04-18T07:29:50.833Z,103149.91
2023-04-18T07:32:18.979Z,103169.34
2023-04-18T07:34:49.631Z,103136.06
2023-04-18T07:37:20.983Z,103141.97
2023-04-18T07:39:52.268Z,103146.94
2023-04-18T07:42:23.603Z,103138.09
2023-04-18T07:44:56.599Z,103136.31
2023-04-18T07:47:23.612Z,103124.84
2023-04-18T07:49:50.557Z,103159.63
2023-04-18T07:52:18.670Z,103109.03
2023-04-18T07:54:45.915Z,103142.03
2023-04-18T07:57:14.040Z,103126.06
2023-04-18T07:59:44.106Z,103149.16
2023-04-18T08:02:11.993Z,103112.09
2023-04-18T08:04:49.835Z,103144.13
2023-04-18T08:07:17.244Z,103123.34
2023-04-18T08:09:44.304Z,103129.16
2023-04-18T08:12:11.352Z,103115.91
2023-04-18T08:14:38.582Z,103129.78
2023-04-18T08:17:11.930Z,103138.53
2023-04-18T08:19:38.527Z,103119.19
2023-04-18T08:22:11.164Z,103138.16
2023-04-18T08:24:38.780Z,103149.28
2023-04-18T08:27:08.995Z,103139.38
2023-04-18T08:29:35.669Z,103136.16
2023-04-18T08:32:14.622Z,103143.69
2023-04-18T08:34:51.831Z,103139.97
2023-04-18T08:37:18.847Z,103118.19
2023-04-18T08:39:45.859Z,103147.91
2023-04-18T08:42:19.461Z,103115.69
2023-04-18T08:44:50.175Z,103132.31
2023-04-18T08:47:17.098Z,103145.88
2023-04-18T08:49:47.128Z,103135.81
2023-04-18T08:52:17.278Z,103119.38
2023-04-18T08:54:48.694Z,103164.84
2023-04-18T08:57:18.420Z,103125.06
2023-04-18T08:59:51.132Z,103154.59
2023-04-18T09:02:26.880Z,103161.50
2023-04-18T09:04:54.118Z,103127.84
2023-04-18T09:07:31.556Z,103116.41
2023-04-18T09:09:58.188Z,103144.41
2023-04-18T09:12:31.594Z,103129.06
2023-04-18T09:15:23.321Z,103146.34
2023-04-18T09:17:55.324Z,103128.97
2023-04-18T09:20:34.677Z,103152.28
2023-04-18T09:23:14.664Z,103153.19
2023-04-18T09:25:44.526Z,103148.31
2023-04-18T09:28:33.847Z,103145.50
2023-04-18T09:31:16.274Z,103157.75
2023-04-18T09:33:55.773Z,103167.22
2023-04-18T09:36:27.132Z,103154.38
2023-04-18T09:38:56.576Z,103148.97
2023-04-18T09:41:31.500Z,103136.47
2023-04-18T09:44:15.138Z,103143.72
2023-04-18T09:46:46.093Z,103149.16
2023-04-18T09:49:15.974Z,103120.69
2023-04-18T09:51:44.457Z,103145.41
2023-04-18T09:54:11.452Z,103153.06
2023-04-18T09:56:44.315Z,103139.50
2023-04-18T09:59:12.723Z,103137.56
2023-04-18T10:01:41.096Z,103130.44
2023-04-18T10:04:09.209Z,103134.63
2023-04-18T10:06:43.808Z,103124.13
2023-04-18T10:09:11.830Z,103110.59
2023-04-18T10:11:43.501Z,103103.28
2023-04-18T10:14:13.771Z,103093.66
2023-04-18T10:16:50.516Z,103125.44
2023-04-18T10:19:26.058Z,103085.13
2023-04-18T10:21:59.795Z,103104.72
2023-04-18T10:24:45.598Z,103108.63
2023-04-18T10:27:12.875Z,103080.91
2023-04-18T10:30:09.083Z,103116.19
2023-04-18T10:32:37.281Z,103117.66
2023-04-18T10:35:11.966Z,103115.59
2023-04-18T10:37:51.604Z,103110.44
2023-04-18T10:40:33.419Z,103113.66
2023-04-18T10:43:01.423Z,103100.97
2023-04-18T10:45:31.037Z,103112.16
2023-04-18T10:48:31.083Z,103107.34
2023-04-18T10:51:18.556Z,103106.25
2023-04-18T10:53:56.668Z,103109.31
2023-04-18T10:56:28.274Z,103113.38
2023-04-18T10:58:56.129Z,103124.53
2023-04-18T11:01:32.694Z,103068.72
2023-04-18T11:04:05.236Z,103073.69
2023-04-18T11:06:32.592Z,103090.63
2023-04-18T11:09:14.637Z,103090.22
2023-04-18T11:11:44.145Z,103081.91
2023-04-18T11:14:11.441Z,103071.66
2023-04-18T11:16:41.900Z,103082.66
2023-04-18T11:19:29.120Z,103082.41
2023-04-18T11:22:05.406Z,103064.66
2023-04-18T11:24:37.106Z,103065.13
2023-04-18T11:27:13.538Z,103051.03
2023-04-18T11:29:45.403Z,103039.69
2023-04-18T11:32:16.345Z,103079.34
2023-04-18T11:34:45.237Z,103068.66
2023-04-18T11:37:15.678Z,103068.25
2023-04-18T11:39:43.932Z,103089.41
2023-04-18T11:42:14.039Z,103058.50
2023-04-18T11:44:45.435Z,103021.22
2023-04-18T11:47:30.154Z,103020.75
2023-04-18T11:50:01.733Z,103021.75
2023-04-18T11:52:31.327Z,103066.84
2023-04-18T11:55:20.666Z,103064.88
2023-04-18T11:58:11.382Z,103029.03
2023-04-18T12:00:41.760Z,103050.31
2023-04-18T12:03:22.753Z,103025.38
2023-04-18T12:05:59.979Z,103036.53
2023-04-18T12:08:36.595Z,103037.06
2023-04-18T12:11:06.037Z,103054.88
2023-04-18T12:13:33.090Z,103023.91
2023-04-18T12:16:03.231Z,103054.59
2023-04-18T12:18:36.153Z,103044.50
2023-04-18T12:21:10.694Z,103025.91
2023-04-18T12:23:43.063Z,103060.22
2023-04-18T12:26:19.046Z,103045.63
2023-04-18T12:28:54.209Z,103047.88
2023-04-18T12:31:28.897Z,103034.31
2023-04-18T12:33:55.757Z,103018.84
2023-04-18T12:36:23.542Z,103052.75
2023-04-18T12:38:56.538Z,103038.09
2023-04-18T12:41:30.498Z,103047.34
2023-04-18T12:43:57.151Z,103050.78
2023-04-18T12:46:25.340Z,103055.69
2023-04-18T12:48:54.230Z,103055.03
2023-04-18T12:51:21.850Z,103039.63
2023-04-18T12:53:57.154Z,103041.69
2023-04-18T12:56:34.623Z,103048.41
2023-04-18T12:59:08.356Z,103020.38
2023-04-18T13:01:37.685Z,103049.50
2023-04-18T13:04:12.429Z,103006.50
2023-04-18T13:06:43.293Z,103003.31
2023-04-18T13:09:10.701Z,103036.81
2023-04-18T13:11:40.971Z,103024.06
2023-04-18T13:14:12.651Z,103039.56
2023-04-18T13:16:43.817Z,103006.00
2023-04-18T13:19:15.332Z,103033.56
2023-04-18T13:21:43.417Z,103044.09
2023-04-18T13:24:12.578Z,103016.53
2023-04-18T13:26:47.930Z,103008.53
2023-04-18T13:29:14.774Z,103006.00
2023-04-18T13:31:46.951Z,103018.31
2023-04-18T13:34:18.314Z,103036.84
2023-04-18T13:36:44.853Z,103037.97
2023-04-18T13:39:13.422Z,103027.09
2023-04-18T13:41:43.071Z,103025.56
2023-04-18T13:44:12.971Z,103003.03
2023-04-18T13:46:39.800Z,103011.44
2023-04-18T13:49:06.817Z,103004.13
2023-04-18T13:51:37.781Z,103016.63
2023-04-18T13:54:07.763Z,103018.31
2023-04-18T13:56:34.612Z,102993.81
2023-04-18T13:59:02.455Z,103010.88
2023-04-18T14:01:32.760Z,103021.56
2023-04-18T14:04:00.009Z,102995.41
2023-04-18T14:06:29.890Z,103002.59
2023-04-18T14:08:56.597Z,103010.38
2023-04-18T14:11:26.124Z,103013.03
2023-04-18T14:13:55.816Z,103017.00
2023-04-18T14:16:26.532Z,102998.41
2023-04-18T14:18:54.202Z,102998.28
2023-04-18T14:21:22.584Z,102973.78
2023-04-18T14:23:52.589Z,103008.66
2023-04-18T14:26:21.524Z,102982.59
2023-04-18T14:28:52.629Z,102997.47
2023-04-18T14:31:20.745Z,102996.13
2023-04-18T14:33:50.379Z,102976.53
2023-04-18T14:36:23.129Z,102967.44
2023-04-18T14:38:50.279Z,102997.19
2023-04-18T14:41:20.037Z,102985.66
2023-04-18T14:43:47.597Z,103012.72
2023-04-18T14:46:19.722Z,102976.00
2023-04-18T14:48:51.643Z,102960.94
2023-04-18T14:51:18.578Z,102984.44
2023-04-18T14:53:48.195Z,102966.94
2023-04-18T14:56:16.296Z,102966.38
2023-04-18T14:58:46.102Z,102946.59
2023-04-18T15:01:13.324Z,102940.16
2023-04-18T15:03:40.634Z,102976.16
2023-04-18T15:06:08.446Z,102966.72
2023-04-18T15:08:38.051Z,102962.03
2023-04-18T15:11:08.640Z,102947.41
2023-04-18T15:13:35.676Z,102947.41
2023-04-18T15:16:02.621Z,102975.09
2023-04-18T15:18:32.498Z,102967.69
2023-04-18T15:20:59.972Z,102964.00
2023-04-18T15:23:27.671Z,102959.09
2023-04-18T15:25:54.593Z,102962.81
2023-04-18T15:28:21.381Z,102960.28
2023-04-18T15:30:50.452Z,102962.19
2023-04-18T15:33:20.621Z,102968.72
2023-04-18T15:35:47.726Z,102970.69
2023-04-18T15:38:14.509Z,102958.66
2023-04-18T15:40:43.672Z,102955.00
2023-04-18T15:43:10.450Z,102959.06
2023-04-18T15:45:39.469Z,102967.06
2023-04-18T15:48:08.083Z,102954.38
2023-04-18T15:50:38.723Z,102910.59
2023-04-18T15:53:06.038Z,102922.78
2023-04-18T15:55:35.200Z,102925.97
2023-04-18T15:58:02.401Z,102933.03
2023-04-18T16:00:31.153Z,102957.72
2023-04-18T16:02:58.517Z,102955.22
2023-04-18T16:05:28.945Z,102929.44
2023-04-18T16:07:56.605Z,102916.63
2023-04-18T16:10:25.092Z,102963.69
2023-04-18T16:12:52.770Z,102944.59
2023-04-18T16:15:22.817Z,102940.72
2023-04-18T16:17:51.218Z,102931.22
2023-04-18T16:20:18.114Z,102934.59
2023-04-18T16:22:44.900Z,102939.88
2023-04-18T16:25:12.968Z,102925.88
2023-04-18T16:27:39.611Z,102954.66
2023-04-18T16:30:10.364Z,102964.06
2023-04-18T16:32:40.386Z,102937.06
2023-04-18T16:35:10.324Z,102943.09
2023-04-18T16:37:38.282Z,102923.69
2023-04-18T16:40:30.545Z,102957.44
2023-04-18T16:42:57.884Z,102927.38
2023-04-18T16:45:26.934Z,102920.47
2023-04-18T16:47:54.091Z,102951.56
2023-04-18T16:50:25.865Z,102946.31
2023-04-18T16:52:55.151Z,102929.66
2023-04-18T16:55:23.547Z,102957.47
2023-04-18T16:57:51.116Z,102953.06
2023-04-18T17:00:22.266Z,102931.38
2023-04-18T17:02:49.478Z,102937.66
2023-04-18T17:05:25.376Z,102936.34
2023-04-18T17:07:53.222Z,102916.38
2023-04-18T17:10:20.269Z,102955.41
2023-04-18T17:12:49.540Z,102908.72
2023-04-18T17:15:23.242Z,102914.03
2023-04-18T17:17:53.452Z,102955.03
2023-04-18T17:20:20.910Z,102947.75
2023-04-18T17:22:51.455Z,102929.66
2023-04-18T17:25:46.342Z,102904.91
2023-04-18T17:28:14.163Z,102915.34
2023-04-18T17:30:45.650Z,102956.53
2023-04-18T17:33:12.424Z,102931.03
2023-04-18T17:35:41.742Z,102927.94
2023-04-18T17:38:10.938Z,102944.09
2023-04-18T17:40:38.551Z,102927.03
2023-04-18T17:43:07.612Z,102971.47
2023-04-18T17:45:37.492Z,102923.06
2023-04-18T17:48:08.723Z,102946.63
2023-04-18T17:50:37.913Z,102945.31
2023-04-18T17:53:07.653Z,102943.66
2023-04-18T17:55:37.780Z,102921.38
2023-04-18T17:58:07.706Z,102922.09
2023-04-18T18:00:36.107Z,102926.53
2023-04-18T18:03:06.114Z,102975.34
2023-04-18T18:05:33.440Z,102957.56
2023-04-18T18:08:05.704Z,102943.81
2023-04-18T18:10:33.937Z,102936.16
2023-04-18T18:13:02.024Z,102975.28
2023-04-18T18:15:31.879Z,102981.38
2023-04-18T18:18:05.974Z,102955.53
2023-04-18T18:20:32.805Z,102956.78
2023-04-18T18:23:01.819Z,102960.38
2023-04-18T18:25:30.084Z,102984.81
2023-04-18T18:28:00.140Z,102959.75
2023-04-18T18:30:27.208Z,102988.81
2023-04-18T18:32:56.586Z,102990.16
2023-04-18T18:35:28.162Z,102996.91
2023-04-18T18:37:54.852Z,102998.97
2023-04-18T18:40:21.683Z,102997.31
2023-04-18T18:42:56.404Z,102979.38
2023-04-18T18:45:23.539Z,103001.28
2023-04-18T18:47:55.009Z,102998.13
2023-04-18T18:50:23.359Z,102971.63
2023-04-18T18:52:54.389Z,103013.41
2023-04-18T18:55:21.191Z,103015.53
2023-04-18T18:57:49.408Z,102978.00
2023-04-18T19:00:26.375Z,103011.72
2023-04-18T19:02:55.822Z,102978.31
2023-04-18T19:05:22.786Z,103004.53
2023-04-18T19:07:51.901Z,102992.75
2023-04-18T19:10:22.945Z,103013.19
2023-04-18T19:12:49.819Z,102988.13
2023-04-18T19:15:17.945Z,103014.41
2023-04-18T19:17:44.758Z,103015.66
2023-04-18T19:20:16.307Z,103046.09
2023-04-18T19:23:11.573Z,103052.50
2023-04-18T19:25:40.784Z,103057.22
2023-04-18T19:28:07.823Z,103034.75
2023-04-18T19:30:34.766Z,103029.75
2023-04-18T19:33:09.839Z,103016.09
2023-04-18T19:35:38.912Z,103022.31
2023-04-18T19:38:05.813Z,103058.84
2023-04-18T19:40:33.512Z,103053.81
2023-04-18T19:43:05.024Z,103055.75
2023-04-18T19:45:32.017Z,103044.97
2023-04-18T19:47:58.817Z,103037.88
2023-04-18T19:50:26.050Z,103048.47
2023-04-18T19:52:58.831Z,103033.81
2023-04-18T19:55:25.614Z,103041.00
2023-04-18T19:58:03.929Z,103067.56
2023-04-18T20:00:31.015Z,103040.00
2023-04-18T20:02:59.044Z,103075.59
2023-04-18T20:05:26.418Z,103073.69
2023-04-18T20:07:53.138Z,103068.94
2023-04-18T20:10:23.520Z,103082.00
2023-04-18T20:12:50.309Z,103077.88
2023-04-18T20:15:18.133Z,103067.34
2023-04-18T20:17:44.710Z,103084.03
2023-04-18T20:20:12.094Z,103059.59
2023-04-18T20:22:40.367Z,103066.97
2023-04-18T20:25:07.086Z,103087.22
2023-04-18T20:27:34.123Z,103091.69
2023-04-18T20:30:01.014Z,103091.75
2023-04-18T20:32:28.292Z,103090.00
2023-04-18T20:34:54.913Z,103095.41
2023-04-18T20:37:21.885Z,103088.50
2023-04-18T20:39:48.920Z,103090.53
2023-04-18T20:42:15.860Z,103090.59
2023-04-18T20:44:47.039Z,103091.22
2023-04-18T20:47:15.464Z,103094.00
2023-04-18T20:49:45.143Z,103092.59
2023-04-18T20:52:11.754Z,103102.28
2023-04-18T20:54:38.409Z,103085.84
2023-04-18T20:57:05.032Z,103096.34
2023-04-18T20:59:31.537Z,103086.84
2023-04-18T21:01:58.371Z,103108.91
2023-04-18T21:04:25.338Z,103098.34
2023-04-18T21:06:52.037Z,103098.41
2023-04-18T21:09:19.183Z,103108.09
2023-04-18T21:11:45.856Z,103104.81
2023-04-18T21:14:12.669Z,103115.34
2023-04-18T21:16:40.267Z,103109.34
2023-04-18T21:19:11.105Z,103106.72
2023-04-18T21:21:37.624Z,103111.28
2023-04-18T21:24:05.909Z,103111.41
2023-04-18T21:26:32.530Z,103114.06
2023-04-18T21:29:00.364Z,103121.31
2023-04-18T21:31:30.429Z,103119.66
2023-04-18T21:33:58.630Z,103110.19
2023-04-18T21:36:27.043Z,103098.84
2023-04-18T21:38:54.548Z,103113.75
2023-04-18T21:41:22.144Z,103123.34
2023-04-18T21:43:49.214Z,103108.69
2023-04-18T21:46:16.424Z,103097.56
2023-04-18T21:48:46.156Z,103125.47
2023-04-18T21:51:14.971Z,103111.53
2023-04-18T21:53:42.302Z,103121.38
2023-04-18T21:56:09.457Z,103116.78
2023-04-18T21:58:36.101Z,103114.94
2023-04-18T22:01:03.624Z,103119.47
2023-04-18T22:03:31.829Z,103110.75
2023-04-18T22:05:58.978Z,103115.09
2023-04-18T22:08:26.848Z,103102.25
2023-04-18T22:10:55.010Z,103107.44
2023-04-18T22:13:30.167Z,103114.50
2023-04-18T22:15:58.509Z,103111.09
2023-04-18T22:18:30.720Z,103099.53
2023-04-18T22:20:57.355Z,103111.84
2023-04-18T22:23:25.695Z,103111.06
2023-04-18T22:25:52.102Z,103115.59
2023-04-18T22:28:18.611Z,103113.97
2023-04-18T22:30:45.977Z,103108.72
2023-04-18T22:33:13.299Z,103115.88
2023-04-18T22:35:40.133Z,103094.06
2023-04-18T22:38:06.872Z,103113.44
2023-04-18T22:40:33.383Z,103086.94
2023-04-18T22:43:00.001Z,103105.28
2023-04-18T22:45:27.692Z,103094.94
2023-04-18T22:47:54.381Z,103106.19
2023-04-18T22:50:21.795Z,103110.63
2023-04-18T22:52:48.711Z,103116.72
2023-04-18T22:55:16.459Z,103111.41
2023-04-18T22:57:43.080Z,103115.03
2023-04-18T23:00:10.200Z,103117.00
2023-04-18T23:02:37.074Z,103120.53
2023-04-18T23:05:06.004Z,103108.34
2023-04-18T23:07:33.998Z,103114.56
2023-04-18T23:10:05.899Z,103118.25
2023-04-18T23:12:32.589Z,103124.16
2023-04-18T23:14:59.219Z,103129.53
2023-04-18T23:17:25.977Z,103127.16
2023-04-18T23:19:52.800Z,103134.00
2023-04-18T23:22:19.417Z,103121.09
2023-04-18T23:24:46.168Z,103134.19
2023-04-18T23:27:15.930Z,103128.81
2023-04-18T23:29:42.661Z,103127.97
2023-04-18T23:32:09.290Z,103120.41
2023-04-18T23:34:35.855Z,103126.47
2023-04-18T23:37:02.360Z,103123.72
2023-04-18T23:39:28.956Z,103132.34
2023-04-18T23:41:56.234Z,103124.50
2023-04-18T23:44:23.153Z,103139.44
2023-04-18T23:46:50.024Z,103130.78
2023-04-18T23:49:16.595Z,103122.22
2023-04-18T23:51:43.546Z,103133.63
2023-04-18T23:54:10.468Z,103121.31
2023-04-18T23:56:37.420Z,103117.91
2023-04-18T23:59:04.165Z,103115.22
